createdAt,value
2019-03-18T00:02:07.801Z,2.40
2019-03-18T00:04:40.648Z,2.40
2019-03-18T00:07:13.500Z,2.30
2019-03-18T00:09:47.329Z,2.20
2019-03-18T00:12:20.260Z,2.10
2019-03-18T00:15:01.175Z,2.00
2019-03-18T00:17:27.982Z,2.00
2019-03-18T00:20:00.889Z,1.90
2019-03-18T00:22:33.733Z,1.90
2019-03-18T00:25:06.927Z,2.00
2019-03-18T00:27:39.747Z,2.20
2019-03-18T00:30:13.546Z,2.30
2019-03-18T00:32:46.352Z,2.50
2019-03-18T00:35:19.188Z,2.70
2019-03-18T00:37:52.027Z,2.80
2019-03-18T00:40:24.882Z,3.00
2019-03-18T00:42:57.815Z,3.10
2019-03-18T00:45:30.786Z,3.10
2019-03-18T00:48:03.629Z,3.20
2019-03-18T00:50:36.604Z,3.20
2019-03-18T00:53:09.423Z,3.20
2019-03-18T00:55:42.255Z,3.10
2019-03-18T00:58:15.081Z,3.10
2019-03-18T01:00:49.024Z,3.00
2019-03-18T01:03:21.835Z,3.10
2019-03-18T01:05:54.731Z,3.00
2019-03-18T01:08:27.503Z,3.10
2019-03-18T01:11:00.377Z,3.00
2019-03-18T01:13:33.190Z,3.00
2019-03-18T01:16:06.080Z,3.00
2019-03-18T01:18:38.910Z,3.00
2019-03-18T01:21:11.775Z,3.10
2019-03-18T01:23:44.704Z,3.10
2019-03-18T01:26:17.579Z,3.00
2019-03-18T01:28:50.525Z,3.00
2019-03-18T01:31:23.366Z,3.00
2019-03-18T01:33:57.205Z,2.90
2019-03-18T01:36:30.064Z,2.90
2019-03-18T01:39:04.454Z,2.90
2019-03-18T01:41:37.277Z,2.80
2019-03-18T01:44:11.943Z,3.00
2019-03-18T01:46:44.804Z,3.00
2019-03-18T01:49:17.671Z,2.90
2019-03-18T01:51:50.530Z,2.90
2019-03-18T01:54:23.371Z,2.90
2019-03-18T01:56:56.376Z,2.90
2019-03-18T01:59:29.255Z,2.90
2019-03-18T02:02:02.180Z,2.90
2019-03-18T02:04:35.219Z,2.80
2019-03-18T02:07:08.089Z,2.80
2019-03-18T02:09:40.963Z,2.80
2019-03-18T02:12:13.787Z,2.70
2019-03-18T02:14:46.702Z,2.70
2019-03-18T02:17:19.559Z,2.70
2019-03-18T02:19:52.518Z,2.70
2019-03-18T02:22:25.404Z,2.70
2019-03-18T02:24:58.160Z,2.70
2019-03-18T02:27:30.965Z,2.60
2019-03-18T02:30:04.819Z,2.70
2019-03-18T02:32:37.807Z,2.70
2019-03-18T02:35:10.646Z,2.70
2019-03-18T02:37:43.694Z,2.70
2019-03-18T02:40:16.671Z,2.70
2019-03-18T02:42:49.657Z,2.60
2019-03-18T02:45:24.576Z,2.50
2019-03-18T02:47:57.201Z,2.50
2019-03-18T02:50:30.033Z,2.40
2019-03-18T02:53:02.876Z,2.40
2019-03-18T02:55:35.687Z,2.40
2019-03-18T02:58:08.497Z,2.60
2019-03-18T03:00:41.372Z,2.70
2019-03-18T03:03:14.250Z,2.70
2019-03-18T03:05:47.086Z,2.70
2019-03-18T03:08:19.978Z,2.70
2019-03-18T03:10:53.009Z,2.80
2019-03-18T03:13:25.841Z,2.90
2019-03-18T03:15:58.692Z,2.90
2019-03-18T03:18:31.515Z,3.00
2019-03-18T03:21:04.365Z,3.00
2019-03-18T03:23:37.199Z,3.10
2019-03-18T03:26:10.052Z,3.20
2019-03-18T03:28:43.069Z,3.20
2019-03-18T03:31:16.182Z,3.20
2019-03-18T03:33:49.063Z,3.20
2019-03-18T03:36:23.019Z,3.30
2019-03-18T03:38:55.825Z,3.20
2019-03-18T03:41:28.635Z,3.30
2019-03-18T03:44:01.430Z,3.30
2019-03-18T03:46:43.066Z,3.30
2019-03-18T03:49:08.958Z,3.30
2019-03-18T03:51:41.788Z,3.30
2019-03-18T03:54:14.585Z,3.30
2019-03-18T03:56:47.538Z,3.30
2019-03-18T03:59:20.362Z,3.30
2019-03-18T04:01:53.234Z,3.40
2019-03-18T04:04:26.046Z,3.40
2019-03-18T04:06:59.898Z,3.50
2019-03-18T04:09:32.814Z,3.50
2019-03-18T04:12:05.655Z,3.50
2019-03-18T04:14:38.498Z,3.50
2019-03-18T04:17:11.323Z,3.40
2019-03-18T04:19:44.162Z,3.40
2019-03-18T04:22:17.056Z,3.40
2019-03-18T04:24:49.893Z,3.50
2019-03-18T04:27:24.805Z,3.50
2019-03-18T04:29:57.676Z,3.60
2019-03-18T04:32:30.497Z,3.50
2019-03-18T04:35:03.724Z,3.60
2019-03-18T04:37:36.532Z,3.60
2019-03-18T04:40:10.251Z,3.60
2019-03-18T04:42:44.970Z,3.60
2019-03-18T04:45:17.772Z,3.60
2019-03-18T04:47:50.608Z,3.60
2019-03-18T04:50:23.411Z,3.70
2019-03-18T04:52:56.222Z,3.70
2019-03-18T04:55:29.012Z,3.70
2019-03-18T04:58:01.857Z,3.70
2019-03-18T05:00:34.639Z,3.70
2019-03-18T05:03:07.460Z,3.70
2019-03-18T05:05:40.255Z,3.80
2019-03-18T05:08:13.171Z,3.90
2019-03-18T05:10:45.981Z,3.80
2019-03-18T05:13:18.857Z,3.80
2019-03-18T05:15:51.715Z,3.80
2019-03-18T05:18:24.519Z,3.80
2019-03-18T05:20:57.311Z,3.80
2019-03-18T05:23:30.123Z,3.90
2019-03-18T05:26:02.948Z,3.90
2019-03-18T05:28:35.766Z,3.90
2019-03-18T05:31:08.623Z,3.90
2019-03-18T05:33:41.464Z,3.90
2019-03-18T05:36:14.297Z,3.90
2019-03-18T05:38:48.217Z,3.80
2019-03-18T05:41:21.014Z,3.70
2019-03-18T05:43:53.827Z,3.70
2019-03-18T05:46:26.632Z,3.60
2019-03-18T05:48:59.475Z,3.50
2019-03-18T05:51:32.287Z,3.50
2019-03-18T05:54:05.123Z,3.50
2019-03-18T05:56:37.955Z,3.60
2019-03-18T05:59:10.778Z,3.80
2019-03-18T06:01:43.698Z,3.80
2019-03-18T06:04:16.531Z,3.80
2019-03-18T06:06:49.357Z,3.90
2019-03-18T06:09:22.174Z,3.90
2019-03-18T06:11:55.007Z,3.90
2019-03-18T06:14:27.844Z,3.90
2019-03-18T06:17:00.661Z,4.00
2019-03-18T06:19:33.672Z,4.40
2019-03-18T06:22:06.499Z,5.00
2019-03-18T06:24:39.313Z,5.20
2019-03-18T06:27:12.124Z,5.00
2019-03-18T06:29:44.957Z,4.70
2019-03-18T06:32:17.755Z,4.60
2019-03-18T06:34:50.567Z,4.50
2019-03-18T06:37:23.477Z,4.50
2019-03-18T06:39:56.301Z,4.50
2019-03-18T06:42:30.201Z,4.50
2019-03-18T06:45:03.738Z,4.50
2019-03-18T06:47:36.543Z,4.50
2019-03-18T06:50:10.013Z,4.60
2019-03-18T06:52:42.825Z,4.70
2019-03-18T06:55:15.668Z,4.80
2019-03-18T06:57:48.515Z,4.90
2019-03-18T07:00:21.368Z,4.90
2019-03-18T07:02:54.190Z,4.90
2019-03-18T07:05:26.995Z,5.10
2019-03-18T07:07:59.839Z,5.20
2019-03-18T07:10:33.648Z,5.30
2019-03-18T07:13:06.532Z,5.40
2019-03-18T07:15:39.361Z,5.60
2019-03-18T07:18:18.206Z,6.00
2019-03-18T07:20:46.901Z,6.00
2019-03-18T07:23:19.906Z,6.10
2019-03-18T07:25:52.705Z,6.30
2019-03-18T07:28:25.503Z,6.30
2019-03-18T07:30:58.375Z,6.20
2019-03-18T07:33:31.189Z,6.20
2019-03-18T07:36:03.996Z,5.90
2019-03-18T07:38:36.865Z,5.60
2019-03-18T07:41:09.790Z,5.40
2019-03-18T07:43:42.627Z,5.40
2019-03-18T07:46:15.446Z,5.40
2019-03-18T07:48:48.562Z,5.40
2019-03-18T07:51:21.389Z,5.50
2019-03-18T07:53:54.209Z,5.70
2019-03-18T07:56:27.063Z,5.90
2019-03-18T07:58:59.909Z,6.00
2019-03-18T08:01:33.707Z,6.20
2019-03-18T08:04:06.551Z,6.20
2019-03-18T08:06:39.382Z,6.20
2019-03-18T08:09:12.192Z,6.10
2019-03-18T08:11:45.005Z,6.00
2019-03-18T08:14:17.891Z,5.90
2019-03-18T08:16:50.732Z,5.90
2019-03-18T08:19:23.562Z,5.90
2019-03-18T08:21:56.392Z,5.90
2019-03-18T08:24:29.228Z,5.80
2019-03-18T08:27:02.044Z,5.90
2019-03-18T08:29:35.852Z,6.00
2019-03-18T08:32:11.643Z,6.00
2019-03-18T08:34:43.422Z,6.10
2019-03-18T08:37:16.216Z,6.20
2019-03-18T08:39:49.088Z,6.10
2019-03-18T08:42:21.916Z,6.20
2019-03-18T08:44:54.792Z,6.20
2019-03-18T08:47:27.688Z,6.20
2019-03-18T08:50:00.545Z,6.30
2019-03-18T08:52:33.360Z,6.30
2019-03-18T08:55:06.389Z,6.40
2019-03-18T08:57:39.400Z,6.50
2019-03-18T09:00:12.307Z,6.60
2019-03-18T09:02:45.082Z,6.80
2019-03-18T09:05:17.950Z,6.90
2019-03-18T09:07:50.770Z,7.10
2019-03-18T09:10:23.604Z,7.20
2019-03-18T09:12:56.428Z,7.20
2019-03-18T09:15:29.266Z,7.30
2019-03-18T09:18:02.137Z,7.70
2019-03-18T09:20:34.962Z,8.00
2019-03-18T09:23:07.808Z,8.10
2019-03-18T09:25:40.675Z,7.80
2019-03-18T09:28:13.489Z,7.40
2019-03-18T09:30:46.309Z,7.40
2019-03-18T09:33:19.162Z,7.30
2019-03-18T09:35:52.022Z,7.30
2019-03-18T09:38:24.862Z,7.30
2019-03-18T09:40:57.705Z,7.20
2019-03-18T09:43:30.534Z,7.40
2019-03-18T09:46:03.350Z,7.50
2019-03-18T09:48:36.184Z,7.70
2019-03-18T09:51:09.766Z,7.50
2019-03-18T09:53:42.634Z,7.60
2019-03-18T09:56:15.457Z,7.60
2019-03-18T09:58:48.364Z,7.50
2019-03-18T10:01:21.175Z,7.70
2019-03-18T10:03:54.131Z,8.00
2019-03-18T10:06:27.022Z,8.30
2019-03-18T10:08:59.895Z,8.70
2019-03-18T10:11:32.858Z,8.80
2019-03-18T10:14:05.698Z,8.60
2019-03-18T10:16:38.523Z,8.80
2019-03-18T10:19:11.384Z,9.30
2019-03-18T10:21:44.161Z,9.10
2019-03-18T10:24:17.007Z,9.00
2019-03-18T10:26:49.823Z,8.90
2019-03-18T10:29:22.704Z,9.10
2019-03-18T10:31:55.536Z,9.30
2019-03-18T10:34:28.411Z,9.70
2019-03-18T10:37:01.252Z,9.80
2019-03-18T10:39:34.133Z,9.80
2019-03-18T10:42:06.971Z,10.10
2019-03-18T10:44:39.836Z,10.30
2019-03-18T10:47:12.689Z,10.10
2019-03-18T10:49:46.683Z,10.10
2019-03-18T10:52:19.714Z,10.00
2019-03-18T10:54:52.576Z,10.00
2019-03-18T10:57:25.454Z,9.90
2019-03-18T11:00:01.063Z,9.80
2019-03-18T11:02:33.034Z,9.80
2019-03-18T11:05:08.160Z,10.00
2019-03-18T11:07:41.341Z,10.30
2019-03-18T11:10:14.422Z,10.00
2019-03-18T11:12:47.275Z,9.70
2019-03-18T11:15:22.241Z,9.80
2019-03-18T11:17:55.049Z,9.70
2019-03-18T11:20:27.995Z,9.60
2019-03-18T11:23:00.917Z,9.50
2019-03-18T11:25:33.830Z,9.20
2019-03-18T11:28:06.634Z,8.90
2019-03-18T11:30:39.500Z,8.60
2019-03-18T11:33:12.312Z,8.50
2019-03-18T11:35:45.159Z,8.60
2019-03-18T11:38:18.038Z,8.70
2019-03-18T11:40:50.864Z,8.80
2019-03-18T11:43:23.692Z,9.00
2019-03-18T11:45:56.646Z,9.20
2019-03-18T11:48:29.497Z,9.40
2019-03-18T11:51:02.846Z,9.50
2019-03-18T11:53:36.824Z,9.50
2019-03-18T11:56:09.837Z,9.70
2019-03-18T11:58:42.714Z,10.00
2019-03-18T12:01:15.728Z,10.20
2019-03-18T12:03:48.569Z,10.30
2019-03-18T12:06:22.058Z,10.40
2019-03-18T12:08:54.899Z,10.40
2019-03-18T12:11:27.727Z,10.40
2019-03-18T12:14:00.539Z,10.40
2019-03-18T12:16:33.523Z,10.50
2019-03-18T12:19:06.338Z,10.50
2019-03-18T12:21:39.225Z,10.50
2019-03-18T12:24:12.075Z,10.70
2019-03-18T12:26:44.903Z,11.00
2019-03-18T12:29:17.750Z,11.00
2019-03-18T12:31:50.586Z,11.00
2019-03-18T12:34:23.419Z,10.70
2019-03-18T12:36:56.296Z,10.60
2019-03-18T12:39:29.207Z,10.40
2019-03-18T12:42:02.049Z,10.20
2019-03-18T12:44:34.860Z,10.20
2019-03-18T12:47:07.693Z,10.10
2019-03-18T12:49:40.507Z,10.10
2019-03-18T12:52:13.445Z,9.90
2019-03-18T12:54:46.291Z,9.60
2019-03-18T12:57:19.206Z,9.40
2019-03-18T12:59:52.031Z,9.40
2019-03-18T13:02:24.879Z,9.70
2019-03-18T13:04:57.782Z,10.00
2019-03-18T13:07:30.620Z,10.50
2019-03-18T13:10:05.052Z,10.70
2019-03-18T13:12:37.933Z,10.80
2019-03-18T13:15:12.828Z,10.90
2019-03-18T13:17:45.689Z,11.00
2019-03-18T13:20:18.674Z,11.10
2019-03-18T13:22:53.957Z,11.20
2019-03-18T13:25:26.548Z,11.30
2019-03-18T13:27:59.631Z,11.20
2019-03-18T13:30:32.539Z,11.20
2019-03-18T13:33:05.494Z,11.40
2019-03-18T13:35:38.377Z,11.20
2019-03-18T13:38:11.438Z,10.70
2019-03-18T13:40:45.924Z,10.30
2019-03-18T13:43:18.972Z,10.00
2019-03-18T13:45:55.642Z,9.80
2019-03-18T13:48:26.657Z,9.20
2019-03-18T13:51:00.582Z,8.40
2019-03-18T13:53:33.443Z,8.00
2019-03-18T13:56:06.452Z,8.00
2019-03-18T13:58:39.320Z,8.10
2019-03-18T14:01:12.145Z,8.30
2019-03-18T14:03:45.052Z,8.50
2019-03-18T14:06:17.894Z,8.60
2019-03-18T14:08:50.777Z,8.80
2019-03-18T14:11:23.600Z,8.90
2019-03-18T14:13:57.497Z,9.00
2019-03-18T14:16:30.319Z,8.90
2019-03-18T14:19:03.197Z,8.90
2019-03-18T14:21:36.255Z,9.00
2019-03-18T14:24:09.154Z,9.10
2019-03-18T14:26:42.148Z,9.10
2019-03-18T14:29:16.233Z,9.10
2019-03-18T14:31:49.084Z,9.00
2019-03-18T14:34:22.002Z,9.00
2019-03-18T14:36:54.896Z,9.00
2019-03-18T14:39:27.778Z,9.00
2019-03-18T14:42:00.601Z,9.00
2019-03-18T14:44:33.490Z,9.20
2019-03-18T14:47:06.312Z,9.40
2019-03-18T14:49:39.222Z,9.60
2019-03-18T14:52:12.035Z,9.80
2019-03-18T14:54:44.918Z,10.00
2019-03-18T14:57:17.787Z,10.40
2019-03-18T14:59:50.650Z,10.80
2019-03-18T15:02:23.527Z,10.90
2019-03-18T15:04:56.346Z,11.00
2019-03-18T15:07:29.199Z,11.20
2019-03-18T15:10:02.160Z,11.00
2019-03-18T15:12:35.054Z,10.40
2019-03-18T15:15:13.801Z,10.30
2019-03-18T15:17:47.656Z,10.40
2019-03-18T15:20:20.705Z,10.40
2019-03-18T15:22:53.555Z,10.50
2019-03-18T15:25:26.485Z,10.50
2019-03-18T15:27:59.603Z,10.40
2019-03-18T15:30:32.676Z,10.30
2019-03-18T15:33:05.578Z,10.20
2019-03-18T15:35:38.494Z,10.20
2019-03-18T15:38:11.370Z,10.20
2019-03-18T15:40:44.339Z,10.10
2019-03-18T15:43:17.219Z,10.10
2019-03-18T15:45:50.071Z,10.00
2019-03-18T15:48:22.906Z,9.40
2019-03-18T15:50:55.855Z,9.10
2019-03-18T15:53:28.795Z,9.00
2019-03-18T15:56:01.624Z,9.00
2019-03-18T15:58:34.477Z,8.60
2019-03-18T16:01:07.341Z,8.60
2019-03-18T16:03:40.254Z,8.60
2019-03-18T16:06:13.268Z,8.70
2019-03-18T16:08:46.132Z,8.80
2019-03-18T16:11:19.169Z,9.00
2019-03-18T16:13:52.059Z,9.30
2019-03-18T16:16:25.008Z,9.30
2019-03-18T16:18:57.893Z,9.30
2019-03-18T16:21:30.975Z,9.30
2019-03-18T16:24:04.188Z,9.30
2019-03-18T16:26:37.026Z,9.30
2019-03-18T16:29:09.893Z,9.30
2019-03-18T16:31:42.739Z,9.10
2019-03-18T16:34:15.729Z,8.90
2019-03-18T16:36:48.688Z,8.90
2019-03-18T16:39:21.759Z,8.80
2019-03-18T16:41:54.642Z,8.70
2019-03-18T16:44:27.498Z,8.70
2019-03-18T16:47:01.511Z,8.60
2019-03-18T16:49:34.483Z,8.60
2019-03-18T16:52:07.571Z,8.60
2019-03-18T16:54:40.430Z,8.50
2019-03-18T16:57:14.393Z,8.50
2019-03-18T16:59:47.269Z,8.40
2019-03-18T17:02:20.103Z,8.30
2019-03-18T17:04:53.005Z,8.20
2019-03-18T17:07:25.897Z,8.20
2019-03-18T17:09:58.868Z,8.10
2019-03-18T17:12:31.732Z,8.00
2019-03-18T17:15:05.037Z,8.00
2019-03-18T17:17:37.850Z,8.00
2019-03-18T17:20:11.077Z,7.90
2019-03-18T17:22:49.384Z,7.80
2019-03-18T17:25:18.709Z,7.80
2019-03-18T17:27:51.437Z,7.80
2019-03-18T17:30:26.640Z,7.70
2019-03-18T17:32:58.983Z,7.70
2019-03-18T17:35:32.039Z,7.70
2019-03-18T17:38:05.133Z,7.50
2019-03-18T17:40:37.977Z,7.50
2019-03-18T17:43:10.825Z,7.50
2019-03-18T17:45:43.712Z,7.40
2019-03-18T17:48:16.724Z,7.30
2019-03-18T17:50:49.671Z,7.20
2019-03-18T17:53:25.132Z,7.20
2019-03-18T17:55:58.019Z,7.10
2019-03-18T17:58:30.932Z,7.10
2019-03-18T18:01:03.994Z,7.20
2019-03-18T18:03:36.872Z,7.10
2019-03-18T18:06:09.735Z,7.00
2019-03-18T18:08:42.553Z,7.00
2019-03-18T18:11:15.607Z,6.80
2019-03-18T18:13:48.553Z,6.70
2019-03-18T18:16:21.426Z,6.60
2019-03-18T18:18:54.293Z,6.40
2019-03-18T18:21:27.182Z,6.30
2019-03-18T18:24:00.028Z,6.20
2019-03-18T18:26:32.998Z,6.00
2019-03-18T18:29:05.872Z,5.80
2019-03-18T18:31:38.767Z,5.60
2019-03-18T18:34:11.657Z,5.50
2019-03-18T18:36:44.722Z,5.50
2019-03-18T18:39:17.608Z,5.50
2019-03-18T18:41:50.454Z,5.60
2019-03-18T18:44:25.102Z,5.60
2019-03-18T18:46:57.972Z,5.60
2019-03-18T18:49:30.813Z,5.60
2019-03-18T18:52:03.695Z,5.60
2019-03-18T18:54:36.690Z,5.50
2019-03-18T18:57:09.615Z,5.50
2019-03-18T18:59:42.627Z,5.40
2019-03-18T19:02:15.497Z,5.40
2019-03-18T19:04:50.130Z,5.30
2019-03-18T19:07:23.012Z,5.20
2019-03-18T19:09:55.991Z,5.10
2019-03-18T19:12:29.007Z,5.10
2019-03-18T19:15:01.836Z,5.00
2019-03-18T19:17:34.804Z,4.90
2019-03-18T19:20:08.046Z,4.80
2019-03-18T19:22:40.948Z,4.80
2019-03-18T19:25:13.854Z,4.60
2019-03-18T19:27:46.739Z,4.50
2019-03-18T19:30:19.844Z,4.50
2019-03-18T19:32:52.717Z,4.40
2019-03-18T19:35:25.730Z,4.40
2019-03-18T19:37:58.637Z,4.40
2019-03-18T19:40:31.596Z,4.50
2019-03-18T19:43:04.511Z,4.50
2019-03-18T19:45:37.396Z,4.50
2019-03-18T19:48:10.466Z,4.30
2019-03-18T19:50:43.365Z,4.20
2019-03-18T19:53:17.551Z,4.10
2019-03-18T19:55:50.474Z,4.00
2019-03-18T19:58:23.398Z,3.90
2019-03-18T20:00:56.269Z,3.80
2019-03-18T20:03:29.146Z,3.80
2019-03-18T20:06:02.238Z,3.70
2019-03-18T20:08:35.088Z,3.70
2019-03-18T20:11:07.995Z,3.70
2019-03-18T20:13:40.971Z,3.70
2019-03-18T20:16:13.851Z,3.70
2019-03-18T20:18:46.692Z,3.70
2019-03-18T20:21:19.604Z,3.70
2019-03-18T20:24:00.679Z,3.60
2019-03-18T20:26:30.357Z,3.50
2019-03-18T20:29:03.350Z,3.60
2019-03-18T20:31:36.218Z,3.50
2019-03-18T20:34:09.195Z,3.40
2019-03-18T20:36:42.327Z,3.40
2019-03-18T20:39:15.368Z,3.40
2019-03-18T20:41:48.203Z,3.30
2019-03-18T20:44:21.046Z,3.40
2019-03-18T20:46:53.882Z,3.40
2019-03-18T20:49:26.843Z,3.30
2019-03-18T20:51:59.709Z,3.30
2019-03-18T20:54:33.658Z,3.30
2019-03-18T20:57:06.657Z,3.20
2019-03-18T20:59:39.507Z,3.10
2019-03-18T21:02:12.482Z,3.00
2019-03-18T21:04:45.340Z,2.90
2019-03-18T21:07:18.275Z,2.80
2019-03-18T21:09:51.253Z,2.80
2019-03-18T21:12:24.252Z,2.80
2019-03-18T21:14:57.100Z,2.80
2019-03-18T21:17:30.090Z,2.80
2019-03-18T21:20:04.194Z,2.80
2019-03-18T21:22:38.159Z,2.80
2019-03-18T21:25:11.396Z,2.70
2019-03-18T21:27:44.337Z,2.70
2019-03-18T21:30:17.485Z,2.60
2019-03-18T21:32:51.096Z,2.60
2019-03-18T21:35:23.967Z,2.50
2019-03-18T21:37:56.852Z,2.60
2019-03-18T21:40:29.707Z,2.60
2019-03-18T21:43:07.248Z,2.60
2019-03-18T21:45:40.076Z,2.60
2019-03-18T21:48:12.939Z,2.60
2019-03-18T21:50:45.837Z,2.60
2019-03-18T21:53:18.679Z,2.60
2019-03-18T21:55:51.509Z,2.50
2019-03-18T21:58:24.380Z,2.50
2019-03-18T22:00:58.351Z,2.60
2019-03-18T22:03:31.227Z,2.60
2019-03-18T22:06:04.107Z,2.60
2019-03-18T22:08:36.938Z,2.60
2019-03-18T22:11:09.768Z,2.60
2019-03-18T22:13:42.633Z,2.50
2019-03-18T22:16:15.488Z,2.50
2019-03-18T22:18:48.464Z,2.50
2019-03-18T22:21:21.328Z,2.50
2019-03-18T22:23:54.220Z,2.50
2019-03-18T22:26:27.081Z,2.40
2019-03-18T22:28:59.949Z,2.50
2019-03-18T22:31:32.784Z,2.60
2019-03-18T22:34:06.927Z,2.60
2019-03-18T22:36:39.853Z,2.70
2019-03-18T22:39:12.731Z,2.60
2019-03-18T22:41:45.583Z,2.60
2019-03-18T22:44:18.518Z,2.50
2019-03-18T22:46:51.356Z,2.40
2019-03-18T22:49:24.196Z,2.50
2019-03-18T22:51:57.050Z,2.50
2019-03-18T22:54:30.165Z,2.40
2019-03-18T22:57:03.034Z,2.40
2019-03-18T22:59:35.908Z,2.40
2019-03-18T23:02:08.744Z,2.40
2019-03-18T23:04:41.713Z,2.30
2019-03-18T23:07:14.561Z,2.30
2019-03-18T23:09:47.530Z,2.20
2019-03-18T23:12:20.361Z,2.10
2019-03-18T23:14:53.207Z,2.10
2019-03-18T23:17:26.078Z,2.00
2019-03-18T23:19:59.860Z,1.90
2019-03-18T23:22:32.900Z,1.70
2019-03-18T23:25:07.673Z,1.50
2019-03-18T23:27:41.907Z,1.50
2019-03-18T23:30:14.860Z,1.50
2019-03-18T23:32:48.316Z,1.40
2019-03-18T23:35:21.255Z,1.30
2019-03-18T23:37:54.396Z,1.20
2019-03-18T23:40:27.261Z,1.20
2019-03-18T23:43:00.105Z,1.20
2019-03-18T23:45:32.925Z,1.20
2019-03-18T23:48:05.881Z,1.20
2019-03-18T23:50:39.137Z,1.20
2019-03-18T23:53:11.986Z,1.20
2019-03-18T23:55:44.799Z,1.30
2019-03-18T23:58:17.659Z,1.30
